Dumas, AR

8:45 AM CDT on September 17, 2014 (GMT -0500)
Monticello Municipal-Ellis | Change Station
CLOSE
Current Station
Airport
Location: Monticello,
Elevation: 269 ft
Nearby Weather Stations

Elev 269 ft 33.64 °N, 91.76 °W | Updated 22 minutes ago

Partly Cloudy
Partly Cloudy
68 °F
Feels Like 68 °F
N
7
Wind Variable Wind from ENE

Today
High -- | Low -- °F
--% Chance of Precip.
Yesterday
High -- | Low -- °F
Precip. -- in
6:50 AM 7:09 PM
Waning Crescent, 36% visible
Pressure 30.00 in
Visibility 3.0 miles
Clouds Overcast 200 ft
Dew Point 67 °F
Humidity 96%
Rainfall 0.00 in
Snow Depth Not available.
UV 0 out of 12
Pollen 10.30 out of 12
Air Quality Not available.
Flu Activity Not available.
SPECI KLLQ 171323Z AUTO 07006KT 3SM BR OVC002 20/19 A3000 RMK AO2 T02000194

More Conditions Fewer Conditions

Pressure 30.00 in
Visibility 3.0 miles
Clouds Overcast 200 ft
Dew Point 67 °F
Humidity 96%
Rainfall 0.00 in
Snow Depth Not available.
UV 0 out of 12
Pollen 10.30 out of 12
Air Quality Not available.
Flu Activity Not available.
SPECI KLLQ 171323Z AUTO 07006KT 3SM BR OVC002 20/19 A3000 RMK AO2 T02000194

More Conditions Fewer Conditions

10-Day Weather Forecast

Almanac

Astronomy

Sep. 17, 2014 Rise Set
Actual Time 6:50 AM CDT 7:09 PM CDT
Civil Twilight 6:25 AM CDT 7:34 PM CDT
Nautical Twilight 5:56 AM CDT 8:03 PM CDT
Astronomical Twilight 5:26 AM CDT 8:33 PM CDT
Moon 1:02 AM CDT 3:08 PM CDT
Length of Visible Light 13h 09m
Length of Day
12h 19m
Tomorrow will be 2m 4s shorter.
Waning Crescent, 36% of the Moon is Illuminated
Today
Waning Crescent
Sep 24
New
Oct 1
First Quarter
Oct 8
Full
Oct 15
Last Quarter

Today's Extremes

State Highs State Lows

Community

WunderPhotos

Upload Photos

1,754,029 photos uploaded!

Nearby

Snow Depth

Station Depth Elevation
No new snow has been reported.

Earthquake Activity

City Distance Mag. Time & Date
No recent earthquake activity has been reported nearby.
Minimum magnitude displayed is 2.5.

Coastal Water Temperatures

Place Temperature
No Stations Reporting

Nearby Weather Stations